createdAt,value
2022-10-25T00:02:21.309Z,6.25
2022-10-25T00:04:49.132Z,4.35
2022-10-25T00:07:16.481Z,5.28
2022-10-25T00:09:43.666Z,5.57
2022-10-25T00:12:11.012Z,5.47
2022-10-25T00:14:38.209Z,4.78
2022-10-25T00:17:05.489Z,3.30
2022-10-25T00:19:32.946Z,5.63
2022-10-25T00:22:00.134Z,6.20
2022-10-25T00:24:27.585Z,4.35
2022-10-25T00:26:54.912Z,2.85
2022-10-25T00:31:54.206Z,7.28
2022-10-25T00:34:21.615Z,5.68
2022-10-25T00:36:48.877Z,3.22
2022-10-25T00:39:16.151Z,4.00
2022-10-25T00:41:43.429Z,2.47
2022-10-25T00:44:55.592Z,3.75
2022-10-25T00:47:44.227Z,3.67
2022-10-25T00:50:33.520Z,3.50
2022-10-25T00:53:09.786Z,3.63
2022-10-25T00:55:42.286Z,1.52
2022-10-25T00:58:16.443Z,1.77
2022-10-25T01:00:46.008Z,1.42
2022-10-25T01:03:16.605Z,5.63
2022-10-25T01:08:12.379Z,2.55
2022-10-25T01:10:40.470Z,2.83
2022-10-25T01:13:07.857Z,4.53
2022-10-25T01:16:20.677Z,5.93
2022-10-25T01:19:01.389Z,3.28
2022-10-25T01:25:06.626Z,4.45
2022-10-25T01:30:57.769Z,1.95
2022-10-25T01:34:06.924Z,3.70
2022-10-25T01:36:39.849Z,6.70
2022-10-25T01:39:17.933Z,4.82
2022-10-25T01:42:04.608Z,5.43
2022-10-25T01:44:54.311Z,2.83
2022-10-25T01:47:41.211Z,3.63
2022-10-25T01:50:21.194Z,3.97
2022-10-25T01:52:48.542Z,2.45
2022-10-25T01:55:16.449Z,6.15
2022-10-25T01:57:57.135Z,2.72
2022-10-25T02:00:26.042Z,5.22
2022-10-25T02:03:10.060Z,4.50
2022-10-25T02:06:02.163Z,4.20
2022-10-25T02:08:36.740Z,4.20
2022-10-25T02:11:32.161Z,5.47
2022-10-25T02:14:34.915Z,4.70
2022-10-25T02:17:17.905Z,4.28
2022-10-25T02:20:00.071Z,3.17
2022-10-25T02:22:32.703Z,5.68
2022-10-25T02:25:01.387Z,5.63
2022-10-25T02:27:31.364Z,3.95
2022-10-25T02:30:00.031Z,3.90
2022-10-25T02:32:27.519Z,7.03
2022-10-25T02:34:54.708Z,5.20
2022-10-25T02:37:22.008Z,4.60
2022-10-25T02:39:50.534Z,4.57
2022-10-25T02:42:17.840Z,5.78
2022-10-25T02:44:45.043Z,4.47
2022-10-25T02:47:12.295Z,3.92
2022-10-25T02:49:39.592Z,6.80
2022-10-25T02:52:06.976Z,6.25
2022-10-25T02:54:34.172Z,5.53
2022-10-25T02:57:01.399Z,4.97
2022-10-25T02:59:29.717Z,7.05
2022-10-25T03:01:57.082Z,4.30
2022-10-25T03:04:24.369Z,23.30
2022-10-25T03:06:51.857Z,4.85
2022-10-25T03:09:19.293Z,7.40
2022-10-25T03:11:46.618Z,4.35
2022-10-25T03:14:13.903Z,9.32
2022-10-25T03:16:41.239Z,4.88
2022-10-25T03:19:08.764Z,8.05
2022-10-25T03:21:38.663Z,4.68
2022-10-25T03:24:08.697Z,3.97
2022-10-25T03:26:35.938Z,4.82
2022-10-25T03:29:03.225Z,4.80
2022-10-25T03:31:31.079Z,6.25
2022-10-25T03:33:58.377Z,4.40
2022-10-25T03:36:25.656Z,6.38
2022-10-25T03:38:52.919Z,5.63
2022-10-25T03:41:20.132Z,5.85
2022-10-25T03:43:47.376Z,4.75
2022-10-25T03:46:14.603Z,7.35
2022-10-25T03:48:41.872Z,5.45
2022-10-25T03:51:09.006Z,4.93
2022-10-25T03:53:36.375Z,3.97
2022-10-25T03:56:03.609Z,4.80
2022-10-25T03:58:30.957Z,6.68
2022-10-25T04:01:00.146Z,7.03
2022-10-25T04:03:27.432Z,4.00
2022-10-25T04:05:54.703Z,3.88
2022-10-25T04:08:21.890Z,4.97
2022-10-25T04:10:49.108Z,4.78
2022-10-25T04:13:16.427Z,4.95
2022-10-25T04:15:43.760Z,5.80
2022-10-25T04:18:11.020Z,5.15
2022-10-25T04:20:38.351Z,6.18
2022-10-25T04:23:05.680Z,3.65
2022-10-25T04:25:32.884Z,4.90
2022-10-25T04:28:00.534Z,9.65
2022-10-25T04:30:27.806Z,8.18
2022-10-25T04:32:56.695Z,9.07
2022-10-25T04:35:24.457Z,8.10
2022-10-25T04:37:52.040Z,4.95
2022-10-25T04:40:24.064Z,3.72
2022-10-25T04:42:52.281Z,4.78
2022-10-25T04:45:19.658Z,6.18
2022-10-25T04:47:47.740Z,5.50
2022-10-25T04:50:14.959Z,5.75
2022-10-25T04:52:42.320Z,7.45
2022-10-25T04:55:09.745Z,8.75
2022-10-25T04:57:36.915Z,7.15
2022-10-25T05:00:05.384Z,6.18
2022-10-25T05:02:32.723Z,5.40
2022-10-25T05:05:00.080Z,6.40
2022-10-25T05:07:27.387Z,10.80
2022-10-25T05:09:54.667Z,5.82
2022-10-25T05:12:23.895Z,6.88
2022-10-25T05:14:51.187Z,8.15
2022-10-25T05:17:18.322Z,6.78
2022-10-25T05:19:45.470Z,5.40
2022-10-25T05:22:12.684Z,9.55
2022-10-25T05:24:39.816Z,6.70
2022-10-25T05:27:07.009Z,7.50
2022-10-25T05:29:34.184Z,7.90
2022-10-25T05:32:01.371Z,7.70
2022-10-25T05:34:28.714Z,5.55
2022-10-25T05:36:55.915Z,7.57
2022-10-25T05:39:23.142Z,8.90
2022-10-25T05:41:50.732Z,9.02
2022-10-25T05:44:18.273Z,8.18
2022-10-25T05:46:45.937Z,5.85
2022-10-25T05:49:13.939Z,6.10
2022-10-25T05:51:41.108Z,7.45
2022-10-25T05:54:14.172Z,7.70
2022-10-25T05:56:43.098Z,6.40
2022-10-25T05:59:15.457Z,9.48
2022-10-25T06:01:46.196Z,7.35
2022-10-25T06:04:14.585Z,3.53
2022-10-25T06:06:43.808Z,9.05
2022-10-25T06:09:12.149Z,4.90
2022-10-25T06:11:40.100Z,7.05
2022-10-25T06:14:10.352Z,3.97
2022-10-25T06:16:38.263Z,3.47
2022-10-25T06:19:05.537Z,3.17
2022-10-25T06:21:32.853Z,4.47
2022-10-25T06:24:00.478Z,6.95
2022-10-25T06:26:30.396Z,7.63
2022-10-25T06:29:01.308Z,3.08
2022-10-25T06:31:30.067Z,6.25
2022-10-25T06:33:59.719Z,6.68
2022-10-25T06:36:27.890Z,6.77
2022-10-25T06:38:55.214Z,4.32
2022-10-25T06:41:27.884Z,3.88
2022-10-25T06:43:55.859Z,4.78
2022-10-25T06:46:30.604Z,7.55
2022-10-25T06:48:59.408Z,5.53
2022-10-25T06:51:29.124Z,4.25
2022-10-25T06:53:58.865Z,2.58
2022-10-25T06:56:28.189Z,5.18
2022-10-25T06:58:55.955Z,3.00
2022-10-25T07:01:25.629Z,2.38
2022-10-25T07:03:54.911Z,3.05
2022-10-25T07:06:29.659Z,4.53
2022-10-25T07:08:59.253Z,4.80
2022-10-25T07:11:29.411Z,3.78
2022-10-25T07:13:58.802Z,2.65
2022-10-25T07:16:27.725Z,4.85
2022-10-25T07:19:00.083Z,5.75
2022-10-25T07:21:29.198Z,6.53
2022-10-25T07:23:56.590Z,2.88
2022-10-25T07:26:26.135Z,4.25
2022-10-25T07:28:56.351Z,2.92
2022-10-25T07:31:29.684Z,6.18
2022-10-25T07:34:00.734Z,4.80
2022-10-25T07:36:28.235Z,5.00
2022-10-25T07:38:57.080Z,5.43
2022-10-25T07:41:25.603Z,6.50
2022-10-25T07:43:52.930Z,3.67
2022-10-25T07:46:20.182Z,8.10
2022-10-25T07:48:47.639Z,5.60
2022-10-25T07:51:17.152Z,6.35
2022-10-25T07:53:44.803Z,12.38
2022-10-25T07:56:22.170Z,6.60
2022-10-25T07:58:54.477Z,6.47
2022-10-25T08:01:25.028Z,4.25
2022-10-25T08:03:53.688Z,4.03
2022-10-25T08:06:23.443Z,5.10
2022-10-25T08:08:51.251Z,6.32
2022-10-25T08:11:18.937Z,4.63
2022-10-25T08:13:50.307Z,4.88
2022-10-25T08:16:17.952Z,5.10
2022-10-25T08:18:45.177Z,5.28
2022-10-25T08:21:12.374Z,4.95
2022-10-25T08:23:39.639Z,3.97
2022-10-25T08:26:07.160Z,5.35
2022-10-25T08:28:34.413Z,5.97
2022-10-25T08:31:02.004Z,3.75
2022-10-25T08:33:30.250Z,5.85
2022-10-25T08:36:01.735Z,4.07
2022-10-25T08:38:29.556Z,4.00
2022-10-25T08:40:59.561Z,4.93
2022-10-25T08:46:30.866Z,3.03
2022-10-25T08:49:19.752Z,4.85
2022-10-25T08:51:50.620Z,4.25
2022-10-25T08:54:43.566Z,3.00
2022-10-25T08:57:32.142Z,5.60
2022-10-25T09:00:12.267Z,3.83
2022-10-25T09:02:55.378Z,4.00
2022-10-25T09:05:52.986Z,5.85
2022-10-25T09:08:38.686Z,6.30
2022-10-25T09:11:23.886Z,6.07
2022-10-25T09:14:28.257Z,4.55
2022-10-25T09:17:16.265Z,5.53
2022-10-25T09:20:10.742Z,3.90
2022-10-25T09:22:57.883Z,6.25
2022-10-25T09:25:54.239Z,3.88
2022-10-25T09:29:02.753Z,3.45
2022-10-25T09:31:39.192Z,6.18
2022-10-25T09:34:10.572Z,5.43
2022-10-25T09:36:45.438Z,3.88
2022-10-25T09:39:37.358Z,2.38
2022-10-25T09:42:07.696Z,8.55
2022-10-25T09:44:47.033Z,2.17
2022-10-25T09:47:29.275Z,3.43
2022-10-25T09:50:06.165Z,4.78
2022-10-25T09:55:56.333Z,3.97
2022-10-25T09:58:27.147Z,3.85
2022-10-25T10:00:58.749Z,4.97
2022-10-25T10:03:32.383Z,5.30
2022-10-25T10:06:12.224Z,2.88
2022-10-25T10:08:46.155Z,5.45
2022-10-25T10:11:18.017Z,3.58
2022-10-25T10:13:57.024Z,7.03
2022-10-25T10:16:32.675Z,4.40
2022-10-25T10:19:25.082Z,5.03
2022-10-25T10:22:12.760Z,1.58
2022-10-25T10:25:00.938Z,4.28
2022-10-25T10:27:29.395Z,3.80
2022-10-25T10:30:02.518Z,5.28
2022-10-25T10:32:38.111Z,3.72
2022-10-25T10:35:31.153Z,8.93
2022-10-25T10:38:30.960Z,4.18
2022-10-25T10:41:28.641Z,3.28
2022-10-25T10:44:13.857Z,4.03
2022-10-25T10:46:46.584Z,4.97
2022-10-25T10:49:16.204Z,6.80
2022-10-25T10:51:45.737Z,3.15
2022-10-25T10:54:29.284Z,4.70
2022-10-25T10:57:03.218Z,5.97
2022-10-25T10:59:46.814Z,5.25
2022-10-25T11:02:35.163Z,4.25
2022-10-25T11:05:02.984Z,4.45
2022-10-25T11:07:36.202Z,3.13
2022-10-25T11:10:15.901Z,4.30
2022-10-25T11:12:44.422Z,5.35
2022-10-25T11:15:16.008Z,4.80
2022-10-25T11:17:54.409Z,2.90
2022-10-25T11:20:41.655Z,3.75
2022-10-25T11:23:39.411Z,4.55
2022-10-25T11:26:27.886Z,4.32
2022-10-25T11:28:58.679Z,6.70
2022-10-25T11:32:24.804Z,3.53
2022-10-25T11:35:10.569Z,3.22
2022-10-25T11:38:06.629Z,3.72
2022-10-25T11:40:41.449Z,5.75
2022-10-25T11:43:42.470Z,4.32
2022-10-25T11:46:45.430Z,7.97
2022-10-25T11:49:26.909Z,2.88
2022-10-25T11:52:58.236Z,2.85
2022-10-25T11:55:50.402Z,2.75
2022-10-25T11:58:38.668Z,2.97
2022-10-25T12:01:39.430Z,4.75
2022-10-25T12:04:32.751Z,6.00
2022-10-25T12:07:22.483Z,6.00
2022-10-25T12:09:59.564Z,2.88
2022-10-25T12:12:49.496Z,6.43
2022-10-25T12:15:27.742Z,4.03
2022-10-25T12:17:55.149Z,3.83
2022-10-25T12:20:28.426Z,5.75
2022-10-25T12:22:59.783Z,6.65
2022-10-25T12:25:41.562Z,3.78
2022-10-25T12:28:40.700Z,3.85
2022-10-25T12:31:36.019Z,5.50
2022-10-25T12:34:48.716Z,4.25
2022-10-25T12:37:40.141Z,2.60
2022-10-25T12:40:20.853Z,4.38
2022-10-25T12:42:57.499Z,8.55
2022-10-25T12:45:42.736Z,4.57
2022-10-25T12:48:53.600Z,6.13
2022-10-25T12:52:05.474Z,2.50
2022-10-25T12:55:04.437Z,4.45
2022-10-25T12:57:53.002Z,5.80
2022-10-25T13:00:23.876Z,6.22
2022-10-25T13:03:31.073Z,2.35
2022-10-25T13:06:16.283Z,2.78
2022-10-25T13:08:44.824Z,4.15
2022-10-25T13:11:12.744Z,4.45
2022-10-25T13:13:53.766Z,4.03
2022-10-25T13:16:28.654Z,3.08
2022-10-25T13:19:36.299Z,2.53
2022-10-25T13:22:40.452Z,4.93
2022-10-25T13:25:13.695Z,3.33
2022-10-25T13:28:15.955Z,6.10
2022-10-25T13:30:44.450Z,3.20
2022-10-25T13:33:24.361Z,2.67
2022-10-25T13:35:51.543Z,7.93
2022-10-25T13:38:34.180Z,6.07
2022-10-25T13:41:20.247Z,4.60
2022-10-25T13:44:05.252Z,7.10
2022-10-25T13:46:41.449Z,3.65
2022-10-25T13:49:32.883Z,2.63
2022-10-25T13:52:08.494Z,6.05
2022-10-25T13:54:55.528Z,6.43
2022-10-25T13:57:58.709Z,4.10
2022-10-25T14:00:37.721Z,3.13
2022-10-25T14:03:13.123Z,1.48
2022-10-25T14:05:55.725Z,4.00
2022-10-25T14:08:51.466Z,2.75
2022-10-25T14:11:32.025Z,6.20
2022-10-25T14:17:04.147Z,4.75
2022-10-25T14:19:42.819Z,3.03
2022-10-25T14:22:40.429Z,5.95
2022-10-25T14:25:26.977Z,2.13
2022-10-25T14:28:17.690Z,3.72
2022-10-25T14:31:02.171Z,6.43
2022-10-25T14:33:36.576Z,3.05
2022-10-25T14:36:06.639Z,5.07
2022-10-25T14:38:55.223Z,4.45
2022-10-25T14:41:31.038Z,3.05
2022-10-25T14:43:58.632Z,1.92
2022-10-25T14:46:30.230Z,7.78
2022-10-25T14:49:00.489Z,4.38
2022-10-25T14:51:38.190Z,3.60
2022-10-25T14:54:16.029Z,2.63
2022-10-25T14:57:01.404Z,3.00
2022-10-25T14:59:48.902Z,3.70
2022-10-25T15:02:23.162Z,3.75
2022-10-25T15:04:54.396Z,4.90
2022-10-25T15:07:42.539Z,3.42
2022-10-25T15:10:46.150Z,4.30
2022-10-25T15:13:44.439Z,4.60
2022-10-25T15:16:41.120Z,3.72
2022-10-25T15:19:14.305Z,3.58
2022-10-25T15:21:49.225Z,6.18
2022-10-25T15:24:26.239Z,6.88
2022-10-25T15:27:01.445Z,4.97
2022-10-25T15:29:40.850Z,5.10
2022-10-25T15:32:24.235Z,4.25
2022-10-25T15:34:59.876Z,5.28
2022-10-25T15:37:29.208Z,5.85
2022-10-25T15:39:57.254Z,8.93
2022-10-25T15:42:26.145Z,5.43
2022-10-25T15:44:53.589Z,3.47
2022-10-25T15:47:34.275Z,6.32
2022-10-25T15:52:30.853Z,10.77
2022-10-25T15:54:58.124Z,9.20
2022-10-25T15:57:27.390Z,9.25
2022-10-25T15:59:54.829Z,13.80
2022-10-25T16:02:31.977Z,6.95
2022-10-25T16:04:59.369Z,8.75
2022-10-25T16:07:26.761Z,7.45
2022-10-25T16:09:53.917Z,9.98
2022-10-25T16:12:29.525Z,10.95
2022-10-25T16:14:57.045Z,14.27
2022-10-25T16:17:24.317Z,5.47
2022-10-25T16:19:51.509Z,7.13
2022-10-25T16:22:18.729Z,10.02
2022-10-25T16:24:45.976Z,7.10
2022-10-25T16:27:13.832Z,7.32
2022-10-25T16:29:41.143Z,7.50
2022-10-25T16:32:08.497Z,6.88
2022-10-25T16:34:35.687Z,6.93
2022-10-25T16:37:03.940Z,3.75
2022-10-25T16:39:32.739Z,7.40
2022-10-25T16:41:59.979Z,5.55
2022-10-25T16:44:27.307Z,6.13
2022-10-25T16:46:54.783Z,202.55
2022-10-25T16:49:22.068Z,1402.78
2022-10-25T16:51:50.053Z,969.05
2022-10-25T16:54:19.665Z,1999.90
2022-10-25T16:56:50.785Z,858.17
2022-10-25T16:59:18.231Z,1097.18
2022-10-25T17:01:46.755Z,742.58
2022-10-25T17:04:17.099Z,81.75
2022-10-25T17:06:44.400Z,24.95
2022-10-25T17:09:11.827Z,35.50
2022-10-25T17:11:39.237Z,37.80
2022-10-25T17:14:07.131Z,18.00
2022-10-25T17:16:34.389Z,18.73
2022-10-25T17:19:05.331Z,11.77
2022-10-25T17:21:35.361Z,5.82
2022-10-25T17:24:04.653Z,5.82
2022-10-25T17:26:32.003Z,5.13
2022-10-25T17:29:00.930Z,7.45
2022-10-25T17:31:28.527Z,6.57
2022-10-25T17:33:58.874Z,19.67
2022-10-25T17:36:26.748Z,7.07
2022-10-25T17:38:55.104Z,4.55
2022-10-25T17:41:22.910Z,12.35
2022-10-25T17:43:53.244Z,11.10
2022-10-25T17:46:29.305Z,11.40
2022-10-25T17:49:03.466Z,6.13
2022-10-25T17:51:34.007Z,7.95
2022-10-25T17:54:01.999Z,8.57
2022-10-25T17:59:07.104Z,7.93
2022-10-25T18:01:35.870Z,8.43
2022-10-25T18:04:03.636Z,10.63
2022-10-25T18:06:31.091Z,6.20
2022-10-25T18:09:00.146Z,12.73
2022-10-25T18:11:28.427Z,10.73
2022-10-25T18:14:01.914Z,7.57
2022-10-25T18:16:31.118Z,5.05
2022-10-25T18:19:01.980Z,5.18
2022-10-25T18:21:29.964Z,11.20
2022-10-25T18:24:03.131Z,4.85
2022-10-25T18:26:31.487Z,6.32
2022-10-25T18:28:59.302Z,6.10
2022-10-25T18:31:27.357Z,6.72
2022-10-25T18:33:55.528Z,5.93
2022-10-25T18:36:22.845Z,8.32
2022-10-25T18:38:50.982Z,8.20
2022-10-25T18:41:27.263Z,8.50
2022-10-25T18:43:55.223Z,7.78
2022-10-25T18:46:24.863Z,6.05
2022-10-25T18:48:55.544Z,5.13
2022-10-25T18:54:02.007Z,6.88
2022-10-25T18:56:30.939Z,7.43
2022-10-25T18:58:59.262Z,6.20
2022-10-25T19:01:32.794Z,7.93
2022-10-25T19:04:02.904Z,5.55
2022-10-25T19:06:31.425Z,9.73
2022-10-25T19:08:58.908Z,10.27
2022-10-25T19:11:26.282Z,6.60
2022-10-25T19:13:55.469Z,7.70
2022-10-25T19:16:23.895Z,6.68
2022-10-25T19:18:51.340Z,38.75
2022-10-25T19:21:19.436Z,13.70
2022-10-25T19:23:48.070Z,12.20
2022-10-25T19:26:20.607Z,9.63
2022-10-25T19:28:54.613Z,7.32
2022-10-25T19:31:22.487Z,7.85
2022-10-25T19:33:51.053Z,9.38
2022-10-25T19:36:20.033Z,7.07
2022-10-25T19:38:50.744Z,6.57
2022-10-25T19:41:23.094Z,5.45
2022-10-25T19:43:50.761Z,7.30
2022-10-25T19:46:19.012Z,4.65
2022-10-25T19:48:46.549Z,5.00
2022-10-25T19:51:20.670Z,9.30
2022-10-25T19:53:49.399Z,8.15
2022-10-25T19:56:20.456Z,6.63
2022-10-25T19:58:48.580Z,7.32
2022-10-25T20:01:26.830Z,8.82
2022-10-25T20:03:57.541Z,4.63
2022-10-25T20:09:00.490Z,6.00
2022-10-25T20:11:29.255Z,10.65
2022-10-25T20:14:01.543Z,8.48
2022-10-25T20:16:30.377Z,4.05
2022-10-25T20:19:01.301Z,11.82
2022-10-25T20:21:35.870Z,5.63
2022-10-25T20:24:07.382Z,7.28
2022-10-25T20:26:38.209Z,6.60
2022-10-25T20:29:17.026Z,6.10
2022-10-25T20:31:47.881Z,5.45
2022-10-25T20:34:15.352Z,4.30
2022-10-25T20:36:43.136Z,4.43
2022-10-25T20:39:13.102Z,2.50
2022-10-25T20:41:40.703Z,3.03
2022-10-25T20:44:09.318Z,5.50
2022-10-25T20:46:36.836Z,3.60
2022-10-25T20:49:04.913Z,3.03
2022-10-25T20:51:32.421Z,6.63
2022-10-25T20:53:59.862Z,7.97
2022-10-25T20:56:27.315Z,5.45
2022-10-25T20:58:54.885Z,6.70
2022-10-25T21:01:22.241Z,5.55
2022-10-25T21:03:49.556Z,5.78
2022-10-25T21:06:16.870Z,5.93
2022-10-25T21:08:44.087Z,4.00
2022-10-25T21:11:13.301Z,6.28
2022-10-25T21:13:41.098Z,3.88
2022-10-25T21:16:15.056Z,4.07
2022-10-25T21:18:43.721Z,5.53
2022-10-25T21:21:20.314Z,3.08
2022-10-25T21:23:48.271Z,4.75
2022-10-25T21:26:16.292Z,5.55
2022-10-25T21:28:43.826Z,6.90
2022-10-25T21:31:14.026Z,5.97
2022-10-25T21:33:49.810Z,5.78
2022-10-25T21:36:19.934Z,3.53
2022-10-25T21:38:47.207Z,8.98
2022-10-25T21:41:31.759Z,5.05
2022-10-25T21:43:59.206Z,7.43
2022-10-25T21:46:28.124Z,6.22
2022-10-25T21:48:55.966Z,4.20
2022-10-25T21:51:24.551Z,4.82
2022-10-25T21:56:23.436Z,11.90
2022-10-25T22:01:25.109Z,12.73
2022-10-25T22:03:52.645Z,10.55
2022-10-25T22:06:25.189Z,9.25
2022-10-25T22:08:55.657Z,12.23
2022-10-25T22:11:26.804Z,13.85
2022-10-25T22:13:56.837Z,11.70
2022-10-25T22:16:25.011Z,9.90
2022-10-25T22:19:03.060Z,10.55
2022-10-25T22:21:34.939Z,10.75
2022-10-25T22:24:03.407Z,11.15
2022-10-25T22:26:30.987Z,12.85
2022-10-25T22:28:59.386Z,8.38
2022-10-25T22:31:29.293Z,6.30
2022-10-25T22:34:01.275Z,7.30
2022-10-25T22:36:31.850Z,9.00
2022-10-25T22:41:28.837Z,10.15
2022-10-25T22:43:57.070Z,9.18
2022-10-25T22:46:30.970Z,5.57
2022-10-25T22:49:00.131Z,6.47
2022-10-25T22:51:28.802Z,5.68
2022-10-25T22:53:56.588Z,8.40
2022-10-25T22:56:27.098Z,8.73
2022-10-25T22:58:57.584Z,6.80
2022-10-25T23:01:28.336Z,8.65
2022-10-25T23:03:57.678Z,9.57
2022-10-25T23:06:38.588Z,6.90
2022-10-25T23:09:09.227Z,10.95
2022-10-25T23:14:07.425Z,7.03
2022-10-25T23:16:35.171Z,9.52
2022-10-25T23:19:03.040Z,13.07
2022-10-25T23:21:31.041Z,9.38
2022-10-25T23:24:00.358Z,11.07
2022-10-25T23:26:32.174Z,9.45
2022-10-25T23:29:00.836Z,7.30
2022-10-25T23:31:29.746Z,9.52
2022-10-25T23:34:00.167Z,12.95
2022-10-25T23:36:30.589Z,5.63
2022-10-25T23:38:58.863Z,10.93
2022-10-25T23:41:26.226Z,7.68
2022-10-25T23:43:53.487Z,10.82
2022-10-25T23:46:20.822Z,7.13
2022-10-25T23:48:48.370Z,15.18
2022-10-25T23:51:18.349Z,10.55
2022-10-25T23:53:45.859Z,11.07
2022-10-25T23:56:14.651Z,9.13
2022-10-25T23:58:42.321Z,7.15
